createdAt,value
2022-11-03T00:03:20.234Z,55.00
2022-11-03T00:08:21.765Z,55.07
2022-11-03T00:13:23.267Z,55.12
2022-11-03T00:18:24.787Z,55.13
2022-11-03T00:23:28.325Z,55.75
2022-11-03T00:28:32.361Z,55.53
2022-11-03T00:33:34.393Z,55.39
2022-11-03T00:38:37.623Z,55.77
2022-11-03T00:43:39.465Z,55.62
2022-11-03T00:48:41.851Z,55.69
2022-11-03T00:53:48.716Z,55.72
2022-11-03T00:58:51.392Z,55.93
2022-11-03T01:04:15.756Z,56.29
2022-11-03T01:09:22.846Z,56.57
2022-11-03T01:14:39.188Z,56.58
2022-11-03T01:19:41.005Z,56.99
2022-11-03T01:24:43.366Z,57.01
2022-11-03T01:29:44.968Z,57.07
2022-11-03T01:34:46.491Z,57.12
2022-11-03T01:39:47.984Z,57.33
2022-11-03T01:44:49.729Z,57.12
2022-11-03T01:50:03.160Z,57.14
2022-11-03T01:55:08.994Z,57.29
2022-11-03T02:00:11.333Z,57.26
2022-11-03T02:05:16.808Z,57.15
2022-11-03T02:10:18.785Z,57.11
2022-11-03T02:15:22.511Z,57.34
2022-11-03T02:20:29.581Z,57.07
2022-11-03T02:26:00.695Z,57.34
2022-11-03T02:31:17.021Z,57.26
2022-11-03T02:36:25.837Z,57.16
2022-11-03T02:41:30.159Z,57.09
2022-11-03T02:46:34.204Z,56.94
2022-11-03T02:51:35.803Z,56.81
2022-11-03T02:56:50.039Z,56.81
2022-11-03T03:02:09.271Z,57.13
2022-11-03T03:07:15.822Z,56.86
2022-11-03T03:12:20.266Z,56.72
2022-11-03T03:17:32.856Z,56.46
2022-11-03T03:22:44.237Z,56.29
2022-11-03T03:27:52.694Z,55.91
2022-11-03T03:32:54.396Z,56.05
2022-11-03T03:38:00.389Z,55.83
2022-11-03T03:43:06.218Z,55.67
2022-11-03T03:48:07.987Z,55.58
2022-11-03T03:53:13.157Z,55.55
2022-11-03T03:58:16.272Z,55.21
2022-11-03T04:03:20.761Z,55.45
2022-11-03T04:08:22.387Z,55.54
2022-11-03T04:13:42.622Z,55.66
2022-11-03T04:19:02.757Z,55.48
2022-11-03T04:24:04.378Z,55.93
2022-11-03T04:29:07.084Z,55.94
2022-11-03T04:34:12.501Z,55.80
2022-11-03T04:39:18.174Z,55.69
2022-11-03T04:44:19.811Z,55.88
2022-11-03T04:49:23.136Z,55.69
2022-11-03T04:54:24.636Z,55.85
2022-11-03T04:59:26.117Z,55.87
2022-11-03T05:04:27.868Z,56.00
2022-11-03T05:09:31.665Z,55.72
2022-11-03T05:14:33.186Z,55.48
2022-11-03T05:19:38.927Z,55.52
2022-11-03T05:24:40.470Z,55.30
2022-11-03T05:29:42.054Z,55.18
2022-11-03T05:34:47.564Z,55.15
2022-11-03T05:39:50.873Z,54.75
2022-11-03T05:44:52.506Z,54.73
2022-11-03T05:50:00.306Z,54.77
2022-11-03T05:55:02.236Z,54.99
2022-11-03T06:00:05.284Z,55.06
2022-11-03T06:05:21.967Z,54.67
2022-11-03T06:10:29.656Z,54.62
2022-11-03T06:15:33.827Z,54.85
2022-11-03T06:20:35.545Z,54.59
2022-11-03T06:25:38.053Z,54.59
2022-11-03T06:35:44.599Z,54.72
2022-11-03T06:40:52.621Z,54.62
2022-11-03T06:46:14.586Z,54.96
2022-11-03T06:51:24.512Z,54.53
2022-11-03T06:56:35.172Z,55.04
2022-11-03T07:01:36.938Z,54.90
2022-11-03T07:06:38.603Z,54.86
2022-11-03T07:11:50.630Z,54.70
2022-11-03T07:17:02.338Z,55.02
2022-11-03T07:22:19.830Z,54.86
2022-11-03T07:27:31.016Z,55.04
2022-11-03T07:32:34.125Z,55.05
2022-11-03T07:37:35.670Z,54.79
2022-11-03T07:42:37.262Z,54.99
2022-11-03T07:47:43.962Z,54.86
2022-11-03T07:52:45.514Z,55.10
2022-11-03T07:57:48.144Z,54.92
2022-11-03T08:02:59.944Z,55.00
2022-11-03T08:08:01.415Z,54.98
2022-11-03T08:13:03.073Z,55.29
2022-11-03T08:18:04.828Z,55.12
2022-11-03T08:23:24.872Z,55.21
2022-11-03T08:28:27.735Z,55.53
2022-11-03T08:38:36.068Z,55.69
2022-11-03T08:43:37.602Z,55.73
2022-11-03T08:48:39.118Z,55.03
2022-11-03T08:53:42.600Z,55.45
2022-11-03T08:58:44.476Z,55.48
2022-11-03T09:03:46.074Z,55.70
2022-11-03T09:14:09.111Z,55.78
2022-11-03T09:19:10.728Z,55.20
2022-11-03T09:24:12.251Z,55.12
2022-11-03T09:29:13.835Z,54.55
2022-11-03T09:34:15.372Z,54.46
2022-11-03T09:39:16.954Z,54.31
2022-11-03T09:44:19.334Z,53.86
2022-11-03T09:49:21.573Z,53.54
2022-11-03T09:54:23.177Z,53.18
2022-11-03T09:59:25.089Z,52.87
2022-11-03T10:04:28.534Z,52.45
2022-11-03T10:09:30.103Z,52.05
2022-11-03T10:14:31.649Z,52.45
2022-11-03T10:19:33.485Z,52.14
2022-11-03T10:24:35.867Z,51.99
2022-11-03T10:29:39.900Z,51.92
2022-11-03T10:34:42.816Z,51.50
2022-11-03T10:39:45.774Z,51.52
2022-11-03T10:44:48.374Z,51.39
2022-11-03T10:49:50.019Z,51.50
2022-11-03T10:54:54.195Z,51.33
2022-11-03T10:59:56.053Z,51.25
2022-11-03T11:05:00.837Z,51.22
2022-11-03T11:10:13.073Z,51.43
2022-11-03T11:15:44.069Z,51.03
2022-11-03T11:20:45.611Z,50.73
2022-11-03T11:26:10.492Z,50.78
2022-11-03T11:31:27.812Z,50.92
2022-11-03T11:36:29.536Z,50.51
2022-11-03T11:42:09.280Z,50.55
2022-11-03T11:47:47.508Z,50.50
2022-11-03T11:53:07.675Z,50.27
2022-11-03T11:58:20.190Z,50.41
2022-11-03T12:03:28.950Z,50.09
2022-11-03T12:08:31.561Z,49.89
2022-11-03T12:13:47.230Z,50.00
2022-11-03T12:18:50.674Z,49.94
2022-11-03T12:23:52.445Z,49.74
2022-11-03T12:28:53.999Z,49.46
2022-11-03T12:33:55.637Z,49.54
2022-11-03T12:38:57.188Z,49.49
2022-11-03T12:43:58.952Z,49.38
2022-11-03T12:49:00.536Z,49.36
2022-11-03T12:54:02.058Z,49.29
2022-11-03T12:59:03.579Z,49.05
2022-11-03T13:04:06.166Z,49.38
2022-11-03T13:09:07.747Z,49.14
2022-11-03T13:14:09.370Z,49.50
2022-11-03T13:19:10.921Z,49.21
2022-11-03T13:24:12.579Z,48.96
2022-11-03T13:29:14.130Z,49.21
2022-11-03T13:34:15.682Z,48.97
2022-11-03T13:39:17.241Z,49.27
2022-11-03T13:44:18.889Z,49.38
2022-11-03T13:49:52.503Z,49.19
2022-11-03T14:00:06.951Z,49.65
2022-11-03T14:05:14.765Z,49.65
2022-11-03T14:10:16.391Z,49.73
2022-11-03T14:15:17.957Z,49.75
2022-11-03T14:20:19.588Z,50.05
2022-11-03T14:25:21.268Z,49.87
2022-11-03T14:30:22.815Z,50.10
2022-11-03T14:35:24.355Z,50.05
2022-11-03T14:40:44.550Z,50.16
2022-11-03T14:45:46.173Z,50.28
2022-11-03T14:50:47.729Z,50.21
2022-11-03T14:55:49.373Z,50.37
2022-11-03T15:00:50.895Z,50.37
2022-11-03T15:05:54.405Z,50.40
2022-11-03T15:10:55.896Z,50.53
2022-11-03T15:15:57.390Z,50.71
2022-11-03T15:20:58.912Z,50.74
2022-11-03T15:26:01.539Z,50.78
2022-11-03T15:31:03.265Z,50.68
2022-11-03T15:36:07.075Z,51.10
2022-11-03T15:41:18.921Z,50.77
2022-11-03T15:46:20.588Z,50.89
2022-11-03T15:51:22.196Z,51.08
2022-11-03T15:56:23.801Z,50.86
2022-11-03T16:01:25.421Z,51.14
2022-11-03T16:06:53.836Z,51.11
2022-11-03T16:11:48.611Z,51.24
2022-11-03T16:16:50.176Z,51.37
2022-11-03T16:21:51.919Z,51.53
2022-11-03T16:26:53.449Z,51.37
2022-11-03T16:31:55.017Z,51.62
2022-11-03T16:36:56.785Z,51.61
2022-11-03T16:41:58.331Z,51.34
2022-11-03T16:47:00.024Z,51.79
2022-11-03T16:52:01.654Z,51.82
2022-11-03T16:57:03.345Z,52.00
2022-11-03T17:02:05.018Z,52.15
2022-11-03T17:07:06.687Z,52.25
2022-11-03T17:12:08.161Z,52.36
2022-11-03T17:17:09.671Z,52.44
2022-11-03T17:22:11.162Z,52.41
2022-11-03T17:27:28.007Z,52.57
2022-11-03T17:32:50.940Z,52.63
2022-11-03T17:42:55.018Z,52.89
2022-11-03T17:47:56.516Z,52.77
2022-11-03T17:52:58.003Z,52.87
2022-11-03T17:58:01.804Z,52.90
2022-11-03T18:03:03.883Z,52.84
2022-11-03T18:08:10.180Z,53.02
2022-11-03T18:13:23.766Z,53.18
2022-11-03T18:18:26.266Z,53.26
2022-11-03T18:23:32.183Z,53.19
2022-11-03T18:28:33.633Z,53.27
2022-11-03T18:33:36.055Z,53.17
2022-11-03T18:38:41.288Z,53.43
2022-11-03T18:43:42.798Z,53.42
2022-11-03T18:48:44.291Z,53.64
2022-11-03T18:53:46.088Z,53.59
2022-11-03T18:58:50.633Z,53.75
2022-11-03T19:03:56.532Z,53.72
2022-11-03T19:08:59.604Z,53.75
2022-11-03T19:14:01.441Z,53.78
2022-11-03T19:19:02.943Z,53.71
2022-11-03T19:24:04.573Z,53.86
2022-11-03T19:29:11.145Z,53.91
2022-11-03T19:34:17.195Z,53.84
2022-11-03T19:39:34.945Z,53.78
2022-11-03T19:44:36.572Z,53.96
2022-11-03T19:49:38.060Z,54.14
2022-11-03T19:54:40.984Z,54.28
2022-11-03T19:59:44.514Z,54.21
2022-11-03T20:04:47.293Z,54.22
2022-11-03T20:09:55.428Z,54.36
2022-11-03T20:14:56.998Z,54.54
2022-11-03T20:19:58.552Z,54.38
2022-11-03T20:25:03.188Z,54.20
2022-11-03T20:30:05.368Z,54.41
2022-11-03T20:35:07.152Z,54.40
2022-11-03T20:40:16.756Z,54.39
2022-11-03T20:45:21.516Z,54.24
2022-11-03T20:50:24.285Z,54.36
2022-11-03T20:55:27.515Z,54.33
2022-11-03T21:00:29.437Z,54.33
2022-11-03T21:05:31.071Z,54.50
2022-11-03T21:10:32.558Z,54.36
2022-11-03T21:16:22.469Z,54.67
2022-11-03T21:21:20.549Z,54.49
2022-11-03T21:26:22.406Z,54.47
2022-11-03T21:31:23.886Z,54.68
2022-11-03T21:36:25.455Z,54.48
2022-11-03T21:41:45.664Z,54.57
2022-11-03T21:46:47.200Z,54.61
2022-11-03T21:51:48.699Z,54.24
2022-11-03T21:56:50.249Z,54.68
2022-11-03T22:01:55.013Z,54.51
2022-11-03T22:06:58.368Z,54.65
2022-11-03T22:11:59.920Z,55.14
2022-11-03T22:17:01.446Z,54.55
2022-11-03T22:22:30.147Z,54.42
2022-11-03T22:27:32.781Z,54.38
2022-11-03T22:32:35.089Z,54.62
2022-11-03T22:42:55.926Z,54.55
2022-11-03T22:47:57.855Z,54.49
2022-11-03T22:52:59.477Z,54.83
2022-11-03T22:58:01.000Z,54.56
2022-11-03T23:03:02.481Z,54.77
2022-11-03T23:08:04.109Z,54.73
2022-11-03T23:13:05.916Z,54.97
2022-11-03T23:18:26.437Z,54.94
2022-11-03T23:23:46.641Z,54.99
2022-11-03T23:28:48.209Z,55.21
2022-11-03T23:33:49.748Z,55.18
2022-11-03T23:38:51.568Z,55.06
2022-11-03T23:43:53.885Z,55.04
2022-11-03T23:48:55.986Z,55.13
2022-11-03T23:53:58.974Z,55.00
2022-11-03T23:59:01.211Z,54.98
